sensor_id;sensor_type;location;lat;lon;timestamp;pressure;altitude;pressure_sealevel;temperature;humidity
34586;BME280;20816;50.950;11.108;2023-03-22T00:02:14;98097.66;;;7.93;100.00
34586;BME280;20816;50.950;11.108;2023-03-22T00:04:41;98107.28;;;7.91;100.00
34586;BME280;20816;50.950;11.108;2023-03-22T00:07:08;98106.38;;;7.94;100.00
34586;BME280;20816;50.950;11.108;2023-03-22T00:09:35;98104.53;;;7.97;100.00
34586;BME280;20816;50.950;11.108;2023-03-22T00:12:04;98109.84;;;7.94;100.00
34586;BME280;20816;50.950;11.108;2023-03-22T00:14:31;98101.97;;;7.96;100.00
34586;BME280;20816;50.950;11.108;2023-03-22T00:16:57;98107.19;;;7.96;100.00
34586;BME280;20816;50.950;11.108;2023-03-22T00:19:24;98098.44;;;7.97;100.00
34586;BME280;20816;50.950;11.108;2023-03-22T00:21:51;98100.97;;;8.01;100.00
34586;BME280;20816;50.950;11.108;2023-03-22T00:24:18;98099.38;;;7.94;100.00
34586;BME280;20816;50.950;11.108;2023-03-22T00:26:47;98106.25;;;8.00;100.00
34586;BME280;20816;50.950;11.108;2023-03-22T00:29:14;98106.22;;;8.01;100.00
34586;BME280;20816;50.950;11.108;2023-03-22T00:31:41;98097.47;;;8.02;100.00
34586;BME280;20816;50.950;11.108;2023-03-22T00:34:07;98099.00;;;8.12;100.00
34586;BME280;20816;50.950;11.108;2023-03-22T00:36:34;98104.19;;;8.15;100.00
34586;BME280;20816;50.950;11.108;2023-03-22T00:39:03;98096.34;;;8.15;100.00
34586;BME280;20816;50.950;11.108;2023-03-22T00:41:33;98097.94;;;8.23;100.00
34586;BME280;20816;50.950;11.108;2023-03-22T00:44:00;98090.91;;;8.25;100.00
34586;BME280;20816;50.950;11.108;2023-03-22T00:46:26;98083.09;;;8.22;100.00
34586;BME280;20816;50.950;11.108;2023-03-22T00:48:53;98084.00;;;8.21;100.00
34586;BME280;20816;50.950;11.108;2023-03-22T00:51:19;98089.25;;;8.21;100.00
34586;BME280;20816;50.950;11.108;2023-03-22T00:53:47;98084.97;;;8.17;100.00
34586;BME280;20816;50.950;11.108;2023-03-22T00:56:17;98085.16;;;8.07;100.00
34586;BME280;20816;50.950;11.108;2023-03-22T00:58:44;98081.38;;;8.21;100.00
34586;BME280;20816;50.950;11.108;2023-03-22T01:01:11;98079.06;;;8.07;100.00
34586;BME280;20816;50.950;11.108;2023-03-22T01:03:40;98073.13;;;7.99;100.00
34586;BME280;20816;50.950;11.108;2023-03-22T01:06:10;98066.78;;;8.10;100.00
34586;BME280;20816;50.950;11.108;2023-03-22T01:08:37;98069.16;;;8.23;100.00
34586;BME280;20816;50.950;11.108;2023-03-22T01:11:05;98057.91;;;8.18;100.00
34586;BME280;20816;50.950;11.108;2023-03-22T01:13:32;98061.47;;;8.15;100.00
34586;BME280;20816;50.950;11.108;2023-03-22T01:15:59;98049.06;;;8.23;100.00
34586;BME280;20816;50.950;11.108;2023-03-22T01:18:25;98049.63;;;8.39;100.00
34586;BME280;20816;50.950;11.108;2023-03-22T01:20:52;98048.75;;;8.40;100.00
34586;BME280;20816;50.950;11.108;2023-03-22T01:23:18;98038.13;;;8.45;100.00
34586;BME280;20816;50.950;11.108;2023-03-22T01:25:45;98052.22;;;8.40;100.00
34586;BME280;20816;50.950;11.108;2023-03-22T01:28:14;98044.25;;;8.45;100.00
34586;BME280;20816;50.950;11.108;2023-03-22T01:30:51;98042.19;;;8.59;100.00
34586;BME280;20816;50.950;11.108;2023-03-22T01:33:18;98040.66;;;8.49;100.00
34586;BME280;20816;50.950;11.108;2023-03-22T01:35:44;98048.63;;;8.45;100.00
34586;BME280;20816;50.950;11.108;2023-03-22T01:38:13;98056.47;;;8.45;100.00
34586;BME280;20816;50.950;11.108;2023-03-22T01:40:43;98055.38;;;8.55;100.00
34586;BME280;20816;50.950;11.108;2023-03-22T01:43:13;98042.25;;;8.56;100.00
34586;BME280;20816;50.950;11.108;2023-03-22T01:45:48;98052.00;;;8.50;100.00
34586;BME280;20816;50.950;11.108;2023-03-22T01:48:19;98042.22;;;8.58;100.00
34586;BME280;20816;50.950;11.108;2023-03-22T01:50:57;98047.50;;;8.56;100.00
34586;BME280;20816;50.950;11.108;2023-03-22T01:53:31;98033.56;;;8.54;100.00
34586;BME280;20816;50.950;11.108;2023-03-22T01:56:02;98039.78;;;8.50;100.00
34586;BME280;20816;50.950;11.108;2023-03-22T01:58:30;98038.88;;;8.51;100.00
34586;BME280;20816;50.950;11.108;2023-03-22T02:00:57;98031.69;;;8.59;100.00
34586;BME280;20816;50.950;11.108;2023-03-22T02:03:34;98026.69;;;8.50;100.00
34586;BME280;20816;50.950;11.108;2023-03-22T02:06:03;98020.50;;;8.53;100.00
34586;BME280;20816;50.950;11.108;2023-03-22T02:08:32;98023.53;;;8.33;100.00
34586;BME280;20816;50.950;11.108;2023-03-22T02:11:00;98024.44;;;8.30;100.00
34586;BME280;20816;50.950;11.108;2023-03-22T02:13:42;98027.31;;;8.20;100.00
34586;BME280;20816;50.950;11.108;2023-03-22T02:17:02;98020.09;;;8.31;100.00
34586;BME280;20816;50.950;11.108;2023-03-22T02:22:33;98013.66;;;8.05;100.00
34586;BME280;20816;50.950;11.108;2023-03-22T02:28:35;98017.03;;;8.10;100.00
34586;BME280;20816;50.950;11.108;2023-03-22T02:33:52;98019.59;;;8.13;100.00
34586;BME280;20816;50.950;11.108;2023-03-22T02:45:25;98012.88;;;8.02;100.00
34586;BME280;20816;50.950;11.108;2023-03-22T02:55:38;98008.88;;;7.84;100.00
34586;BME280;20816;50.950;11.108;2023-03-22T02:58:10;98013.31;;;7.80;100.00
34586;BME280;20816;50.950;11.108;2023-03-22T03:00:39;98005.25;;;7.91;100.00
34586;BME280;20816;50.950;11.108;2023-03-22T03:03:10;98008.69;;;7.93;100.00
34586;BME280;20816;50.950;11.108;2023-03-22T03:05:41;98006.84;;;7.98;100.00
34586;BME280;20816;50.950;11.108;2023-03-22T03:08:09;98011.59;;;8.20;100.00
34586;BME280;20816;50.950;11.108;2023-03-22T03:10:41;98007.41;;;8.12;100.00
34586;BME280;20816;50.950;11.108;2023-03-22T03:13:13;98005.84;;;8.04;100.00
34586;BME280;20816;50.950;11.108;2023-03-22T03:15:41;98002.41;;;8.02;100.00
34586;BME280;20816;50.950;11.108;2023-03-22T03:18:31;98001.47;;;8.04;100.00
34586;BME280;20816;50.950;11.108;2023-03-22T03:23:46;98003.78;;;8.18;100.00
34586;BME280;20816;50.950;11.108;2023-03-22T03:26:28;97999.53;;;8.12;100.00
34586;BME280;20816;50.950;11.108;2023-03-22T03:29:21;98001.13;;;8.20;100.00
34586;BME280;20816;50.950;11.108;2023-03-22T03:32:04;98000.19;;;8.22;100.00
34586;BME280;20816;50.950;11.108;2023-03-22T03:34:48;97998.47;;;8.21;100.00
34586;BME280;20816;50.950;11.108;2023-03-22T03:37:21;98005.63;;;8.14;100.00
34586;BME280;20816;50.950;11.108;2023-03-22T03:40:17;98009.28;;;8.07;100.00
34586;BME280;20816;50.950;11.108;2023-03-22T03:42:52;98009.09;;;8.15;100.00
34586;BME280;20816;50.950;11.108;2023-03-22T03:45:19;98005.59;;;8.16;100.00
34586;BME280;20816;50.950;11.108;2023-03-22T03:47:48;98005.50;;;8.19;100.00
34586;BME280;20816;50.950;11.108;2023-03-22T03:50:23;97999.22;;;8.28;100.00
34586;BME280;20816;50.950;11.108;2023-03-22T03:52:52;97995.97;;;8.17;100.00
34586;BME280;20816;50.950;11.108;2023-03-22T03:55:19;97998.72;;;8.10;100.00
34586;BME280;20816;50.950;11.108;2023-03-22T03:57:46;97997.81;;;8.11;100.00
34586;BME280;20816;50.950;11.108;2023-03-22T04:00:14;97997.94;;;8.05;100.00
34586;BME280;20816;50.950;11.108;2023-03-22T04:02:41;97998.09;;;7.99;100.00
34586;BME280;20816;50.950;11.108;2023-03-22T04:05:08;97998.03;;;8.02;100.00
34586;BME280;20816;50.950;11.108;2023-03-22T04:07:36;97999.09;;;7.94;100.00
34586;BME280;20816;50.950;11.108;2023-03-22T04:10:04;97996.38;;;7.98;100.00
34586;BME280;20816;50.950;11.108;2023-03-22T04:12:31;97996.50;;;7.92;100.00
34586;BME280;20816;50.950;11.108;2023-03-22T04:15:00;97994.78;;;7.91;100.00
34586;BME280;20816;50.950;11.108;2023-03-22T04:17:27;98006.16;;;7.90;100.00
34586;BME280;20816;50.950;11.108;2023-03-22T04:19:54;98002.69;;;7.88;100.00
34586;BME280;20816;50.950;11.108;2023-03-22T04:22:23;97996.81;;;7.77;100.00
34586;BME280;20816;50.950;11.108;2023-03-22T04:24:50;97993.31;;;7.78;100.00
34586;BME280;20816;50.950;11.108;2023-03-22T04:27:18;97996.13;;;7.69;100.00
34586;BME280;20816;50.950;11.108;2023-03-22T04:29:45;97990.16;;;7.61;100.00
34586;BME280;20816;50.950;11.108;2023-03-22T04:32:17;97983.41;;;7.50;100.00
34586;BME280;20816;50.950;11.108;2023-03-22T04:34:44;97996.59;;;7.44;100.00
34586;BME280;20816;50.950;11.108;2023-03-22T04:37:12;98010.34;;;7.54;100.00
34586;BME280;20816;50.950;11.108;2023-03-22T04:39:39;98007.81;;;7.51;100.00
34586;BME280;20816;50.950;11.108;2023-03-22T04:42:06;97998.25;;;7.48;100.00
34586;BME280;20816;50.950;11.108;2023-03-22T04:44:33;98000.66;;;7.59;100.00
34586;BME280;20816;50.950;11.108;2023-03-22T04:47:00;97989.91;;;7.73;100.00
34586;BME280;20816;50.950;11.108;2023-03-22T04:49:27;97991.41;;;7.86;100.00
34586;BME280;20816;50.950;11.108;2023-03-22T04:51:54;97986.09;;;7.89;100.00
34586;BME280;20816;50.950;11.108;2023-03-22T04:54:23;97978.94;;;7.97;100.00
34586;BME280;20816;50.950;11.108;2023-03-22T04:56:50;97978.94;;;7.99;100.00
34586;BME280;20816;50.950;11.108;2023-03-22T04:59:19;97981.50;;;8.00;100.00
34586;BME280;20816;50.950;11.108;2023-03-22T05:01:47;97979.78;;;7.99;100.00
34586;BME280;20816;50.950;11.108;2023-03-22T05:04:15;97979.91;;;7.93;100.00
34586;BME280;20816;50.950;11.108;2023-03-22T05:06:42;97979.00;;;7.94;100.00
34586;BME280;20816;50.950;11.108;2023-03-22T05:09:11;97972.06;;;7.93;100.00
34586;BME280;20816;50.950;11.108;2023-03-22T05:11:38;97963.19;;;8.00;100.00
34586;BME280;20816;50.950;11.108;2023-03-22T05:14:07;97964.91;;;8.01;100.00
34586;BME280;20816;50.950;11.108;2023-03-22T05:16:34;97964.09;;;7.98;100.00
34586;BME280;20816;50.950;11.108;2023-03-22T05:19:01;97966.63;;;8.02;100.00
34586;BME280;20816;50.950;11.108;2023-03-22T05:21:36;97959.34;;;8.17;100.00
34586;BME280;20816;50.950;11.108;2023-03-22T05:24:06;97957.75;;;8.09;100.00
34586;BME280;20816;50.950;11.108;2023-03-22T05:26:33;97955.94;;;8.11;100.00
34586;BME280;20816;50.950;11.108;2023-03-22T05:29:03;97957.28;;;8.29;100.00
34586;BME280;20816;50.950;11.108;2023-03-22T05:31:32;97959.25;;;8.20;100.00
34586;BME280;20816;50.950;11.108;2023-03-22T05:34:01;97953.06;;;8.24;100.00
34586;BME280;20816;50.950;11.108;2023-03-22T05:36:28;97956.59;;;8.23;100.00
34586;BME280;20816;50.950;11.108;2023-03-22T05:38:55;97948.50;;;8.32;100.00
34586;BME280;20816;50.950;11.108;2023-03-22T05:41:22;97951.13;;;8.32;100.00
34586;BME280;20816;50.950;11.108;2023-03-22T05:43:56;97953.63;;;8.38;100.00
34586;BME280;20816;50.950;11.108;2023-03-22T05:46:23;97960.59;;;8.39;100.00
34586;BME280;20816;50.950;11.108;2023-03-22T05:48:49;97963.91;;;8.46;100.00
34586;BME280;20816;50.950;11.108;2023-03-22T05:51:17;97963.75;;;8.53;100.00
34586;BME280;20816;50.950;11.108;2023-03-22T05:53:45;97966.41;;;8.52;100.00
34586;BME280;20816;50.950;11.108;2023-03-22T05:56:33;97968.91;;;8.56;100.00
34586;BME280;20816;50.950;11.108;2023-03-22T05:59:02;97965.19;;;8.66;100.00
34586;BME280;20816;50.950;11.108;2023-03-22T06:01:34;97960.88;;;8.64;100.00
34586;BME280;20816;50.950;11.108;2023-03-22T06:04:02;97951.94;;;8.73;100.00
34586;BME280;20816;50.950;11.108;2023-03-22T06:06:29;97958.06;;;8.72;100.00
34586;BME280;20816;50.950;11.108;2023-03-22T06:08:55;97958.03;;;8.73;100.00
34586;BME280;20816;50.950;11.108;2023-03-22T06:11:39;97953.75;;;8.69;100.00
34586;BME280;20816;50.950;11.108;2023-03-22T06:14:06;97960.28;;;8.87;100.00
34586;BME280;20816;50.950;11.108;2023-03-22T06:16:32;97968.22;;;8.84;100.00
34586;BME280;20816;50.950;11.108;2023-03-22T06:18:59;97962.19;;;8.82;100.00
34586;BME280;20816;50.950;11.108;2023-03-22T06:21:26;97977.09;;;8.80;100.00
34586;BME280;20816;50.950;11.108;2023-03-22T06:23:59;97969.25;;;8.78;100.00
34586;BME280;20816;50.950;11.108;2023-03-22T06:26:27;97978.56;;;8.90;100.00
34586;BME280;20816;50.950;11.108;2023-03-22T06:28:54;97978.34;;;8.99;100.00
34586;BME280;20816;50.950;11.108;2023-03-22T06:31:20;97973.59;;;9.13;100.00
34586;BME280;20816;50.950;11.108;2023-03-22T06:33:47;97978.56;;;9.24;100.00
34586;BME280;20816;50.950;11.108;2023-03-22T06:36:15;97983.59;;;9.32;100.00
34586;BME280;20816;50.950;11.108;2023-03-22T06:38:41;97980.47;;;9.50;100.00
34586;BME280;20816;50.950;11.108;2023-03-22T06:41:07;97981.81;;;9.65;100.00
34586;BME280;20816;50.950;11.108;2023-03-22T06:43:34;97980.25;;;9.89;100.00
34586;BME280;20816;50.950;11.108;2023-03-22T06:46:01;97974.47;;;10.07;100.00
34586;BME280;20816;50.950;11.108;2023-03-22T06:48:27;97977.22;;;10.32;100.00
34586;BME280;20816;50.950;11.108;2023-03-22T06:50:54;97984.47;;;10.53;100.00
34586;BME280;20816;50.950;11.108;2023-03-22T06:53:20;97981.34;;;10.69;100.00
34586;BME280;20816;50.950;11.108;2023-03-22T06:55:47;97981.00;;;10.79;100.00
34586;BME280;20816;50.950;11.108;2023-03-22T06:58:13;97984.94;;;10.92;100.00
34586;BME280;20816;50.950;11.108;2023-03-22T07:00:40;97986.75;;;11.17;98.77
34586;BME280;20816;50.950;11.108;2023-03-22T07:03:07;97985.31;;;11.33;97.16
34586;BME280;20816;50.950;11.108;2023-03-22T07:05:36;97991.84;;;11.46;96.94
34586;BME280;20816;50.950;11.108;2023-03-22T07:08:03;97988.47;;;11.68;96.26
34586;BME280;20816;50.950;11.108;2023-03-22T07:10:29;97974.78;;;11.83;94.69
34586;BME280;20816;50.950;11.108;2023-03-22T07:12:57;97979.13;;;11.84;93.50
34586;BME280;20816;50.950;11.108;2023-03-22T07:15:23;97972.47;;;12.21;92.71
34586;BME280;20816;50.950;11.108;2023-03-22T07:17:52;97975.25;;;12.40;91.14
34586;BME280;20816;50.950;11.108;2023-03-22T07:20:19;97980.09;;;12.50;91.16
34586;BME280;20816;50.950;11.108;2023-03-22T07:22:45;97975.00;;;12.68;89.85
34586;BME280;20816;50.950;11.108;2023-03-22T07:25:12;97979.41;;;12.89;89.00
34586;BME280;20816;50.950;11.108;2023-03-22T07:27:39;97972.75;;;13.01;88.34
34586;BME280;20816;50.950;11.108;2023-03-22T07:30:06;97974.25;;;12.86;87.89
34586;BME280;20816;50.950;11.108;2023-03-22T07:32:35;97973.47;;;12.84;87.24
34586;BME280;20816;50.950;11.108;2023-03-22T07:35:01;97974.63;;;13.21;87.00
34586;BME280;20816;50.950;11.108;2023-03-22T07:37:30;97970.84;;;13.26;86.91
34586;BME280;20816;50.950;11.108;2023-03-22T07:39:59;97972.13;;;13.38;85.51
34586;BME280;20816;50.950;11.108;2023-03-22T07:42:26;97961.41;;;13.61;85.40
34586;BME280;20816;50.950;11.108;2023-03-22T07:44:52;97966.66;;;13.82;84.19
34586;BME280;20816;50.950;11.108;2023-03-22T07:47:19;97977.22;;;13.82;83.47
34586;BME280;20816;50.950;11.108;2023-03-22T07:50:05;97972.25;;;13.94;83.78
34586;BME280;20816;50.950;11.108;2023-03-22T07:52:32;97958.03;;;14.16;82.55
34586;BME280;20816;50.950;11.108;2023-03-22T07:54:58;97956.66;;;14.45;81.93
34586;BME280;20816;50.950;11.108;2023-03-22T07:57:25;97953.81;;;14.68;80.83
34586;BME280;20816;50.950;11.108;2023-03-22T07:59:51;97948.56;;;15.03;79.45
34586;BME280;20816;50.950;11.108;2023-03-22T08:02:17;97947.06;;;15.14;78.88
34586;BME280;20816;50.950;11.108;2023-03-22T08:04:49;97944.19;;;14.84;80.16
34586;BME280;20816;50.950;11.108;2023-03-22T08:07:21;97941.25;;;15.08;80.26
34586;BME280;20816;50.950;11.108;2023-03-22T08:09:50;97946.69;;;15.39;80.05
34586;BME280;20816;50.950;11.108;2023-03-22T08:12:17;97940.69;;;15.86;77.71
34586;BME280;20816;50.950;11.108;2023-03-22T08:14:44;97937.81;;;15.91;76.34
34586;BME280;20816;50.950;11.108;2023-03-22T08:17:17;97938.31;;;15.82;77.52
34586;BME280;20816;50.950;11.108;2023-03-22T08:19:44;97939.81;;;15.70;77.00
34586;BME280;20816;50.950;11.108;2023-03-22T08:22:11;97941.06;;;16.12;75.90
34586;BME280;20816;50.950;11.108;2023-03-22T08:24:38;97928.06;;;15.91;75.47
34586;BME280;20816;50.950;11.108;2023-03-22T08:27:07;97938.19;;;16.16;74.68
34586;BME280;20816;50.950;11.108;2023-03-22T08:29:33;97935.63;;;16.15;75.39
34586;BME280;20816;50.950;11.108;2023-03-22T08:32:00;97929.38;;;15.67;75.41
34586;BME280;20816;50.950;11.108;2023-03-22T08:34:28;97932.84;;;15.85;76.38
34586;BME280;20816;50.950;11.108;2023-03-22T08:36:56;97925.69;;;16.18;74.71
34586;BME280;20816;50.950;11.108;2023-03-22T08:39:23;97924.22;;;16.44;75.15
34586;BME280;20816;50.950;11.108;2023-03-22T08:41:50;97921.44;;;16.32;73.70
34586;BME280;20816;50.950;11.108;2023-03-22T08:44:19;97916.47;;;16.41;74.02
34586;BME280;20816;50.950;11.108;2023-03-22T08:46:45;97923.38;;;16.28;74.33
34586;BME280;20816;50.950;11.108;2023-03-22T08:49:12;97912.34;;;16.20;74.58
34586;BME280;20816;50.950;11.108;2023-03-22T08:51:38;97904.34;;;16.37;74.78
34586;BME280;20816;50.950;11.108;2023-03-22T08:54:05;97907.97;;;16.50;74.59
34586;BME280;20816;50.950;11.108;2023-03-22T08:56:37;97901.13;;;16.78;72.89
34586;BME280;20816;50.950;11.108;2023-03-22T08:59:04;97897.34;;;17.12;72.06
34586;BME280;20816;50.950;11.108;2023-03-22T09:01:31;97889.69;;;16.92;72.00
34586;BME280;20816;50.950;11.108;2023-03-22T09:03:58;97884.28;;;17.23;70.51
34586;BME280;20816;50.950;11.108;2023-03-22T09:06:25;97885.34;;;17.63;68.09
34586;BME280;20816;50.950;11.108;2023-03-22T09:08:53;97874.91;;;17.46;69.55
34586;BME280;20816;50.950;11.108;2023-03-22T09:11:24;97877.88;;;16.97;69.05
34586;BME280;20816;50.950;11.108;2023-03-22T09:13:51;97889.34;;;16.98;68.72
34586;BME280;20816;50.950;11.108;2023-03-22T09:16:17;97868.84;;;17.58;67.25
34586;BME280;20816;50.950;11.108;2023-03-22T09:18:44;97876.25;;;17.53;67.14
34586;BME280;20816;50.950;11.108;2023-03-22T09:21:11;97872.56;;;16.97;67.59
34586;BME280;20816;50.950;11.108;2023-03-22T09:23:38;97876.03;;;17.28;67.18
34586;BME280;20816;50.950;11.108;2023-03-22T09:26:09;97871.00;;;17.23;66.05
34586;BME280;20816;50.950;11.108;2023-03-22T09:28:36;97870.31;;;17.05;67.20
34586;BME280;20816;50.950;11.108;2023-03-22T09:31:06;97858.41;;;17.27;66.81
34586;BME280;20816;50.950;11.108;2023-03-22T09:33:38;97863.09;;;17.07;67.04
34586;BME280;20816;50.950;11.108;2023-03-22T09:36:07;97861.94;;;16.97;66.81
34586;BME280;20816;50.950;11.108;2023-03-22T09:38:34;97858.38;;;17.13;66.36
34586;BME280;20816;50.950;11.108;2023-03-22T09:41:04;97855.66;;;17.28;65.82
34586;BME280;20816;50.950;11.108;2023-03-22T09:43:37;97841.50;;;17.42;64.81
34586;BME280;20816;50.950;11.108;2023-03-22T09:46:09;97847.19;;;17.64;64.34
34586;BME280;20816;50.950;11.108;2023-03-22T09:48:39;97847.31;;;17.63;64.86
34586;BME280;20816;50.950;11.108;2023-03-22T09:51:20;97853.34;;;17.22;64.01
34586;BME280;20816;50.950;11.108;2023-03-22T09:53:49;97836.75;;;17.19;64.32
34586;BME280;20816;50.950;11.108;2023-03-22T09:56:23;97833.16;;;17.48;64.17
34586;BME280;20816;50.950;11.108;2023-03-22T09:58:58;97827.84;;;17.34;64.76
34586;BME280;20816;50.950;11.108;2023-03-22T10:04:31;97829.19;;;17.84;64.21
34586;BME280;20816;50.950;11.108;2023-03-22T10:10:10;97820.63;;;17.93;63.30
34586;BME280;20816;50.950;11.108;2023-03-22T10:15:37;97828.06;;;18.42;61.91
34586;BME280;20816;50.950;11.108;2023-03-22T10:18:07;97816.41;;;18.03;62.28
34586;BME280;20816;50.950;11.108;2023-03-22T10:21:02;97813.63;;;18.19;63.02
34586;BME280;20816;50.950;11.108;2023-03-22T10:23:34;97823.50;;;18.44;61.84
34586;BME280;20816;50.950;11.108;2023-03-22T10:26:06;97827.66;;;18.21;62.75
34586;BME280;20816;50.950;11.108;2023-03-22T10:28:40;97823.09;;;17.39;63.46
34586;BME280;20816;50.950;11.108;2023-03-22T10:31:13;97826.47;;;16.98;65.89
34586;BME280;20816;50.950;11.108;2023-03-22T10:34:06;97806.78;;;17.74;64.42
34586;BME280;20816;50.950;11.108;2023-03-22T10:36:34;97803.00;;;17.21;64.60
34586;BME280;20816;50.950;11.108;2023-03-22T10:41:47;97810.91;;;16.92;67.25
34586;BME280;20816;50.950;11.108;2023-03-22T10:44:16;97820.03;;;17.17;65.96
34586;BME280;20816;50.950;11.108;2023-03-22T10:46:48;97823.16;;;16.65;66.04
34586;BME280;20816;50.950;11.108;2023-03-22T10:49:28;97817.50;;;17.15;66.26
34586;BME280;20816;50.950;11.108;2023-03-22T10:52:12;97813.06;;;17.44;66.05
34586;BME280;20816;50.950;11.108;2023-03-22T10:54:43;97804.47;;;17.96;63.46
34586;BME280;20816;50.950;11.108;2023-03-22T10:57:10;97814.09;;;17.84;63.40
34586;BME280;20816;50.950;11.108;2023-03-22T10:59:50;97802.28;;;17.88;63.22
34586;BME280;20816;50.950;11.108;2023-03-22T11:02:19;97811.81;;;18.19;62.96
34586;BME280;20816;50.950;11.108;2023-03-22T11:04:51;97810.28;;;17.17;63.23
34586;BME280;20816;50.950;11.108;2023-03-22T11:07:36;97812.75;;;17.06;63.82
34586;BME280;20816;50.950;11.108;2023-03-22T11:12:40;97808.09;;;17.09;64.45
34586;BME280;20816;50.950;11.108;2023-03-22T11:15:27;97795.44;;;16.70;66.02
34586;BME280;20816;50.950;11.108;2023-03-22T11:18:00;97798.03;;;16.86;65.04
34586;BME280;20816;50.950;11.108;2023-03-22T11:20:27;97791.56;;;16.90;66.07
34586;BME280;20816;50.950;11.108;2023-03-22T11:23:03;97803.88;;;16.47;67.34
34586;BME280;20816;50.950;11.108;2023-03-22T11:25:45;97805.28;;;16.22;66.79
34586;BME280;20816;50.950;11.108;2023-03-22T11:28:31;97799.06;;;16.53;65.94
34586;BME280;20816;50.950;11.108;2023-03-22T11:31:19;97797.25;;;16.84;66.30
34586;BME280;20816;50.950;11.108;2023-03-22T11:33:59;97794.03;;;16.79;64.64
34586;BME280;20816;50.950;11.108;2023-03-22T11:36:27;97799.94;;;16.98;65.28
34586;BME280;20816;50.950;11.108;2023-03-22T11:39:02;97795.97;;;17.34;63.93
34586;BME280;20816;50.950;11.108;2023-03-22T11:41:34;97797.69;;;17.35;64.16
34586;BME280;20816;50.950;11.108;2023-03-22T11:44:05;97800.78;;;16.99;64.82
34586;BME280;20816;50.950;11.108;2023-03-22T11:46:34;97776.34;;;16.64;66.46
34586;BME280;20816;50.950;11.108;2023-03-22T11:49:12;97785.22;;;16.33;65.15
34586;BME280;20816;50.950;11.108;2023-03-22T11:51:41;97788.84;;;16.16;67.05
34586;BME280;20816;50.950;11.108;2023-03-22T11:56:59;97778.84;;;16.21;65.91
34586;BME280;20816;50.950;11.108;2023-03-22T11:59:37;97767.13;;;16.25;65.40
34586;BME280;20816;50.950;11.108;2023-03-22T12:02:27;97758.50;;;16.66;65.87
34586;BME280;20816;50.950;11.108;2023-03-22T12:05:05;97755.28;;;17.05;64.78
34586;BME280;20816;50.950;11.108;2023-03-22T12:07:34;97759.00;;;17.02;65.21
34586;BME280;20816;50.950;11.108;2023-03-22T12:10:42;97760.03;;;16.56;65.40
34586;BME280;20816;50.950;11.108;2023-03-22T12:16:00;97764.81;;;16.19;67.27
34586;BME280;20816;50.950;11.108;2023-03-22T12:18:39;97762.69;;;16.10;67.46
34586;BME280;20816;50.950;11.108;2023-03-22T12:21:08;97751.88;;;16.59;66.36
34586;BME280;20816;50.950;11.108;2023-03-22T12:23:34;97750.63;;;17.23;64.13
34586;BME280;20816;50.950;11.108;2023-03-22T12:28:56;97754.59;;;18.00;62.10
34586;BME280;20816;50.950;11.108;2023-03-22T12:31:50;97762.00;;;17.25;63.09
34586;BME280;20816;50.950;11.108;2023-03-22T12:34:20;97757.41;;;17.70;63.17
34586;BME280;20816;50.950;11.108;2023-03-22T12:36:56;97743.88;;;18.01;60.99
34586;BME280;20816;50.950;11.108;2023-03-22T12:39:28;97745.84;;;17.71;61.26
34586;BME280;20816;50.950;11.108;2023-03-22T12:42:00;97741.47;;;17.55;62.02
34586;BME280;20816;50.950;11.108;2023-03-22T12:44:32;97726.72;;;17.37;62.85
34586;BME280;20816;50.950;11.108;2023-03-22T12:47:06;97727.47;;;17.53;62.96
34586;BME280;20816;50.950;11.108;2023-03-22T12:52:24;97726.97;;;18.02;61.31
34586;BME280;20816;50.950;11.108;2023-03-22T12:55:21;97715.81;;;17.83;62.91
34586;BME280;20816;50.950;11.108;2023-03-22T12:57:50;97723.25;;;17.78;62.68
34586;BME280;20816;50.950;11.108;2023-03-22T13:00:35;97726.34;;;17.43;62.30
34586;BME280;20816;50.950;11.108;2023-03-22T13:03:22;97718.56;;;17.26;63.16
34586;BME280;20816;50.950;11.108;2023-03-22T13:05:59;97722.75;;;16.87;64.14
34586;BME280;20816;50.950;11.108;2023-03-22T13:11:34;97725.22;;;16.90;63.93
34586;BME280;20816;50.950;11.108;2023-03-22T13:14:03;97707.56;;;17.18;64.08
34586;BME280;20816;50.950;11.108;2023-03-22T13:16:50;97713.25;;;17.26;63.96
34586;BME280;20816;50.950;11.108;2023-03-22T13:19:27;97707.75;;;17.43;64.17
34586;BME280;20816;50.950;11.108;2023-03-22T13:22:18;97710.81;;;17.78;63.11
34586;BME280;20816;50.950;11.108;2023-03-22T13:27:52;97706.22;;;17.25;64.65
34586;BME280;20816;50.950;11.108;2023-03-22T13:32:47;97700.75;;;17.69;62.56
34586;BME280;20816;50.950;11.108;2023-03-22T13:38:26;97693.16;;;17.63;63.55
34586;BME280;20816;50.950;11.108;2023-03-22T13:41:02;97691.50;;;17.89;62.01
34586;BME280;20816;50.950;11.108;2023-03-22T13:43:51;97689.41;;;17.53;62.48
34586;BME280;20816;50.950;11.108;2023-03-22T13:48:55;97690.66;;;17.33;64.13
34586;BME280;20816;50.950;11.108;2023-03-22T13:51:28;97683.66;;;17.32;62.47
34586;BME280;20816;50.950;11.108;2023-03-22T13:54:07;97689.44;;;17.24;62.66
34586;BME280;20816;50.950;11.108;2023-03-22T14:01:51;97673.91;;;17.18;62.16
34586;BME280;20816;50.950;11.108;2023-03-22T14:04:25;97675.28;;;17.38;61.68
34586;BME280;20816;50.950;11.108;2023-03-22T14:06:58;97679.31;;;17.17;61.02
34586;BME280;20816;50.950;11.108;2023-03-22T14:09:53;97668.34;;;16.80;61.51
34586;BME280;20816;50.950;11.108;2023-03-22T14:12:31;97671.72;;;16.68;62.35
34586;BME280;20816;50.950;11.108;2023-03-22T14:15:04;97668.19;;;16.67;62.45
34586;BME280;20816;50.950;11.108;2023-03-22T14:17:45;97668.97;;;16.55;62.59
34586;BME280;20816;50.950;11.108;2023-03-22T14:20:18;97676.25;;;16.66;63.08
34586;BME280;20816;50.950;11.108;2023-03-22T14:22:49;97674.16;;;16.42;62.34
34586;BME280;20816;50.950;11.108;2023-03-22T14:25:21;97669.19;;;16.36;63.17